Time;durP1;ratioP1;P1;durP2;ratioP2;P2;SDS_P1;SDS_P2;PMS_P1;PMS_P2;Temp;Humidity;BMP_temperature;BMP_pressure;BME280_temperature;BME280_humidity;BME280_pressure;Samples;Min_cycle;Max_cycle;Signal;HPM_P1;HPM_P2
2022/07/04 00:01:27;;;;;;;81.00;56.13;;;27.30;99.90;;;;;;5098065;28;20024;-69
2022/07/04 00:03:54;;;;;;;82.30;57.15;;;27.40;99.90;;;;;;5097219;28;20028;-70
2022/07/04 00:06:21;;;;;;;89.47;59.60;;;27.40;99.90;;;;;;5097187;28;20348;-70
2022/07/04 00:08:47;;;;;;;85.35;59.90;;;27.30;99.90;;;;;;5098132;28;20500;-70
2022/07/04 00:11:14;;;;;;;84.20;58.13;;;27.40;99.90;;;;;;5098077;28;20020;-68
2022/07/04 00:13:41;;;;;;;82.00;57.83;;;27.40;99.90;;;;;;5098345;28;20024;-68
2022/07/04 00:16:07;;;;;;;75.25;53.97;;;27.40;99.90;;;;;;5095272;28;20020;-68
2022/07/04 00:18:34;;;;;;;73.22;52.85;;;27.50;99.90;;;;;;5077998;28;20028;-68
2022/07/04 00:21:01;;;;;;;82.10;55.50;;;27.40;99.90;;;;;;5078146;28;20024;-68
2022/07/04 00:23:27;;;;;;;77.80;55.35;;;27.40;99.90;;;;;;5077701;28;20021;-68
2022/07/04 00:25:54;;;;;;;84.78;57.05;;;27.50;99.90;;;;;;5077659;28;20025;-67
2022/07/04 00:28:21;;;;;;;77.78;54.45;;;27.50;99.90;;;;;;5078003;28;20087;-68
2022/07/04 00:30:47;;;;;;;78.05;56.15;;;27.50;99.90;;;;;;5077866;28;20025;-68
2022/07/04 00:33:15;;;;;;;73.85;53.72;;;27.50;99.90;;;;;;5077355;28;20063;-68
2022/07/04 00:35:42;;;;;;;105.30;71.97;;;27.50;99.90;;;;;;5077529;28;20024;-68
2022/07/04 00:38:09;;;;;;;173.32;109.13;;;27.50;99.90;;;;;;5075858;28;20024;-70
2022/07/04 00:40:35;;;;;;;104.15;71.13;;;27.50;99.90;;;;;;5075374;28;20070;-68
2022/07/04 00:43:03;;;;;;;169.48;115.28;;;27.60;99.90;;;;;;5075364;28;20107;-68
2022/07/04 00:45:30;;;;;;;161.05;105.80;;;27.60;99.90;;;;;;5074607;28;20051;-67
2022/07/04 00:47:57;;;;;;;81.32;56.72;;;27.70;99.90;;;;;;5075181;28;20131;-68
2022/07/04 00:50:25;;;;;;;95.13;61.22;;;27.70;99.90;;;;;;5075122;28;20099;-68
2022/07/04 00:52:53;;;;;;;76.57;55.47;;;27.80;99.90;;;;;;5074930;28;20024;-69
2022/07/04 00:55:22;;;;;;;55.67;41.55;;;27.90;99.90;;;;;;5074828;28;20024;-69
2022/07/04 00:57:49;;;;;;;69.47;50.33;;;28.00;99.90;;;;;;5075082;28;20085;-68
2022/07/04 01:00:18;;;;;;;74.40;49.33;;;28.10;99.90;;;;;;5074963;28;20017;-68
2022/07/04 01:02:45;;;;;;;83.88;63.90;;;28.10;99.90;;;;;;5074714;28;20032;-68
2022/07/04 01:05:12;;;;;;;74.60;56.35;;;28.20;99.90;;;;;;5092744;28;20020;-68
2022/07/04 01:07:39;;;;;;;77.18;55.30;;;28.30;99.90;;;;;;5095240;28;20028;-68
2022/07/04 01:10:06;;;;;;;65.22;46.67;;;28.30;99.90;;;;;;5094943;28;20024;-67
2022/07/04 01:12:33;;;;;;;74.85;52.72;;;28.40;99.90;;;;;;5095117;28;20024;-68
2022/07/04 01:14:59;;;;;;;65.43;49.63;;;28.40;99.90;;;;;;5094885;28;20464;-68
2022/07/04 01:17:26;;;;;;;61.60;48.60;;;28.40;99.90;;;;;;5094834;28;20020;-69
2022/07/04 01:19:53;;;;;;;58.10;43.40;;;28.50;99.90;;;;;;5095387;28;20016;-68
2022/07/04 01:22:21;;;;;;;62.20;44.92;;;28.40;99.90;;;;;;5095035;28;20012;-68
2022/07/04 01:24:47;;;;;;;61.53;45.45;;;28.40;99.90;;;;;;5094697;28;20024;-68
2022/07/04 01:27:16;;;;;;;68.25;46.55;;;28.50;99.90;;;;;;5094716;28;20027;-68
2022/07/04 01:29:42;;;;;;;72.32;48.05;;;28.50;99.90;;;;;;5094856;28;20392;-68
2022/07/04 01:32:10;;;;;;;56.78;41.95;;;28.60;99.90;;;;;;5094395;28;20032;-68
2022/07/04 01:34:38;;;;;;;55.45;40.60;;;28.60;99.90;;;;;;5094957;28;20027;-68
2022/07/04 01:37:06;;;;;;;55.45;37.70;;;28.70;99.90;;;;;;5094686;28;20028;-68
2022/07/04 01:39:32;;;;;;;54.40;38.63;;;28.70;99.90;;;;;;5094492;28;20020;-67
2022/07/04 01:41:59;;;;;;;63.97;44.10;;;28.80;99.90;;;;;;5094569;28;20051;-67
2022/07/04 01:44:26;;;;;;;57.47;40.17;;;28.90;99.90;;;;;;5094653;28;20021;-65
2022/07/04 01:46:53;;;;;;;91.28;60.10;;;28.90;99.90;;;;;;5094659;28;20044;-67
2022/07/04 01:49:20;;;;;;;80.00;56.85;;;29.00;99.90;;;;;;5094550;28;20032;-67
2022/07/04 01:51:50;;;;;;;72.90;52.67;;;29.00;99.90;;;;;;5094295;28;20085;-67
2022/07/04 01:54:17;;;;;;;64.63;45.47;;;29.00;99.90;;;;;;5094288;28;20079;-67
2022/07/04 01:56:44;;;;;;;61.72;44.33;;;29.10;99.90;;;;;;5093455;28;20093;-67
2022/07/04 01:59:11;;;;;;;57.63;40.97;;;29.10;99.90;;;;;;5092375;28;20028;-67
2022/07/04 02:01:38;;;;;;;63.60;41.47;;;29.10;99.90;;;;;;5082339;28;20016;-67
2022/07/04 02:04:07;;;;;;;63.65;41.55;;;29.20;99.90;;;;;;5084236;28;20354;-67
2022/07/04 02:06:34;;;;;;;58.45;39.05;;;29.30;99.90;;;;;;5084267;28;20610;-68
2022/07/04 02:14:34;;;;;;;53.92;40.75;;;29.40;99.90;;;;;;5094031;28;20028;-68
2022/07/04 02:17:02;;;;;;;46.80;35.70;;;29.40;99.90;;;;;;5093650;28;20032;-67
2022/07/04 02:19:29;;;;;;;43.78;33.05;;;29.50;99.90;;;;;;5093429;28;20444;-67
2022/07/04 02:21:56;;;;;;;43.47;31.50;;;29.50;99.90;;;;;;5093570;28;20024;-71
2022/07/04 02:24:23;;;;;;;50.40;34.88;;;29.50;99.90;;;;;;5093718;28;20016;-72
2022/07/04 02:26:50;;;;;;;49.30;35.05;;;29.60;99.90;;;;;;5093537;28;20051;-71
2022/07/04 02:29:16;;;;;;;47.40;34.92;;;29.50;99.90;;;;;;5093975;28;20020;-68
2022/07/04 02:31:43;;;;;;;43.25;30.02;;;29.50;99.90;;;;;;5094438;28;20107;-69
2022/07/04 02:34:10;;;;;;;46.33;32.03;;;29.60;99.90;;;;;;5094346;28;20103;-69
2022/07/04 02:36:37;;;;;;;36.53;27.80;;;29.80;99.90;;;;;;5094452;28;20527;-68
2022/07/04 02:39:05;;;;;;;43.42;27.52;;;29.80;99.90;;;;;;5094892;28;20373;-68
2022/07/04 02:41:33;;;;;;;40.30;27.48;;;30.00;99.90;;;;;;5094352;28;20552;-68
2022/07/04 02:43:59;;;;;;;40.20;28.45;;;30.10;99.90;;;;;;5094392;28;20381;-69
2022/07/04 02:46:26;;;;;;;39.03;28.00;;;30.10;99.90;;;;;;5094303;28;20106;-69
2022/07/04 02:48:54;;;;;;;36.08;25.63;;;30.10;99.90;;;;;;5093984;28;20051;-69
2022/07/04 02:51:21;;;;;;;37.45;25.20;;;30.00;99.90;;;;;;5094352;28;20024;-69
2022/07/04 02:53:47;;;;;;;33.03;24.95;;;30.00;99.90;;;;;;5094356;28;20024;-68
2022/07/04 02:56:14;;;;;;;43.92;27.60;;;30.00;99.90;;;;;;5093867;28;20051;-66
2022/07/04 02:58:41;;;;;;;48.97;30.05;;;30.00;99.90;;;;;;5093961;28;20016;-66
2022/07/04 03:01:07;;;;;;;42.20;29.33;;;30.00;99.90;;;;;;5093758;28;20020;-69
2022/07/04 03:03:35;;;;;;;42.10;29.98;;;30.00;99.90;;;;;;5093426;28;20024;-69
2022/07/04 03:06:01;;;;;;;30.73;23.65;;;30.00;99.90;;;;;;5093503;28;20021;-69
2022/07/04 03:08:28;;;;;;;34.10;22.33;;;30.00;99.90;;;;;;5078200;28;20455;-69
2022/07/04 03:10:55;;;;;;;33.80;23.38;;;30.00;99.90;;;;;;5098150;28;20020;-71
2022/07/04 03:13:22;;;;;;;35.72;23.83;;;30.00;99.90;;;;;;5097666;28;20034;-69
2022/07/04 03:15:48;;;;;;;38.67;26.77;;;30.00;99.90;;;;;;5097215;28;20388;-69
2022/07/04 03:18:15;;;;;;;48.58;31.13;;;30.10;99.90;;;;;;5096955;28;20016;-69
2022/07/04 03:20:42;;;;;;;37.05;27.58;;;30.00;99.90;;;;;;5097203;28;20036;-68
2022/07/04 03:23:09;;;;;;;35.42;24.98;;;30.00;99.90;;;;;;5097124;28;20024;-68
2022/07/04 03:25:36;;;;;;;32.33;24.90;;;30.00;99.90;;;;;;5097163;28;20048;-68
2022/07/04 03:28:03;;;;;;;28.23;21.55;;;30.00;99.90;;;;;;5097214;28;20028;-68
2022/07/04 03:30:30;;;;;;;27.20;20.38;;;30.00;99.90;;;;;;5096951;28;20028;-71
2022/07/04 03:32:56;;;;;;;29.63;19.70;;;30.00;99.90;;;;;;5096926;28;20020;-67
2022/07/04 03:35:24;;;;;;;31.80;22.38;;;30.10;99.90;;;;;;5095866;28;20068;-67
2022/07/04 03:37:51;;;;;;;31.65;21.85;;;30.20;99.90;;;;;;5094633;28;20028;-67
2022/07/04 03:40:18;;;;;;;29.52;22.55;;;30.20;99.90;;;;;;5095851;28;20052;-67
2022/07/04 03:42:45;;;;;;;26.45;19.58;;;30.20;99.90;;;;;;5095876;28;20016;-67
2022/07/04 03:45:12;;;;;;;29.90;20.60;;;30.20;99.90;;;;;;5096511;28;20103;-66
2022/07/04 03:47:39;;;;;;;48.05;34.78;;;30.30;99.90;;;;;;5096173;28;20040;-66
2022/07/04 03:50:06;;;;;;;77.05;54.78;;;30.40;99.90;;;;;;5096221;28;20112;-67
2022/07/04 03:52:33;;;;;;;148.85;114.28;;;30.40;99.90;;;;;;5096353;28;20020;-66
2022/07/04 03:55:00;;;;;;;37.15;27.85;;;30.50;99.90;;;;;;5094612;28;20086;-67
2022/07/04 03:57:36;;;;;;;39.53;27.13;;;30.50;99.90;;;;;;5094340;28;20097;-69
2022/07/04 04:00:04;;;;;;;19.48;14.48;;;30.50;99.90;;;;;;5095176;28;20027;-67
2022/07/04 04:02:31;;;;;;;27.02;17.38;;;30.50;99.90;;;;;;5095719;28;20389;-67
2022/07/04 04:07:44;;;;;;;20.52;13.00;;;30.50;99.90;;;;;;5095835;28;20111;-67
2022/07/04 04:10:11;;;;;;;22.80;13.38;;;30.50;99.90;;;;;;5077936;28;20028;-66
2022/07/04 04:12:38;;;;;;;26.75;15.80;;;30.50;99.90;;;;;;5089657;28;20055;-66
2022/07/04 04:15:05;;;;;;;23.63;15.40;;;30.50;99.90;;;;;;5084459;28;20066;-65
2022/07/04 04:17:32;;;;;;;119.97;90.90;;;30.50;99.90;;;;;;5085999;28;20020;-65
2022/07/04 04:19:59;;;;;;;30.23;20.60;;;30.60;99.90;;;;;;5083410;28;20021;-67
2022/07/04 04:22:27;;;;;;;106.53;74.15;;;30.60;99.90;;;;;;5081861;28;20478;-69
2022/07/04 04:24:54;;;;;;;180.90;138.30;;;30.60;99.90;;;;;;5075553;28;20033;-67
2022/07/04 04:27:21;;;;;;;34.47;26.55;;;30.60;99.90;;;;;;5075648;28;20025;-66
2022/07/04 04:29:47;;;;;;;39.45;27.38;;;30.60;99.90;;;;;;5075679;28;20055;-66
2022/07/04 04:32:14;;;;;;;23.73;15.55;;;30.60;99.90;;;;;;5080281;28;20028;-67
2022/07/04 04:34:41;;;;;;;26.60;15.98;;;30.70;99.90;;;;;;5067522;28;20023;-70
2022/07/04 04:37:07;;;;;;;31.25;16.83;;;30.70;99.90;;;;;;5065750;28;20284;-70
2022/07/04 04:39:34;;;;;;;30.48;17.25;;;30.70;99.90;;;;;;5083993;28;20586;-72
2022/07/04 04:42:01;;;;;;;24.25;16.33;;;30.70;99.90;;;;;;5083049;28;20024;-69
2022/07/04 04:44:29;;;;;;;32.35;18.48;;;30.80;99.90;;;;;;5078761;28;20020;-66
2022/07/04 04:46:55;;;;;;;25.52;18.13;;;30.80;99.90;;;;;;5055441;28;20028;-69
2022/07/04 04:49:23;;;;;;;26.30;17.63;;;30.80;99.90;;;;;;5056362;28;20040;-70
2022/07/04 04:51:50;;;;;;;32.15;17.85;;;30.80;99.90;;;;;;5073843;28;20162;-68
2022/07/04 04:54:16;;;;;;;26.65;17.02;;;30.80;99.90;;;;;;5074137;28;20215;-70
2022/07/04 04:56:43;;;;;;;22.42;17.42;;;30.80;99.90;;;;;;5074158;28;20027;-69
2022/07/04 04:59:10;;;;;;;31.58;20.85;;;30.80;99.90;;;;;;5073910;28;20009;-69
2022/07/04 05:01:37;;;;;;;44.00;27.17;;;30.80;99.90;;;;;;5078327;28;20471;-69
2022/07/04 05:04:04;;;;;;;32.70;20.50;;;30.80;99.90;;;;;;5089511;28;20111;-69
2022/07/04 05:06:31;;;;;;;26.67;16.65;;;30.90;99.90;;;;;;5083713;28;20032;-69
2022/07/04 05:08:57;;;;;;;26.25;18.63;;;30.90;99.90;;;;;;5083271;28;20537;-68
2022/07/04 05:11:24;;;;;;;31.27;18.25;;;31.00;99.90;;;;;;5086378;28;20036;-68
2022/07/04 05:13:51;;;;;;;29.98;18.17;;;31.10;99.90;;;;;;5085246;28;20471;-68
2022/07/04 05:16:18;;;;;;;25.73;16.40;;;31.20;99.90;;;;;;5089754;28;20482;-67
2022/07/04 05:18:45;;;;;;;23.75;16.55;;;31.50;99.90;;;;;;5084448;28;20025;-68
2022/07/04 05:21:11;;;;;;;28.65;16.90;;;31.70;99.90;;;;;;5085958;28;20020;-68
2022/07/04 05:23:38;;;;;;;25.95;16.38;;;31.70;99.90;;;;;;5086918;28;20039;-68
2022/07/04 05:26:05;;;;;;;24.95;16.75;;;31.50;99.90;;;;;;5092195;28;20027;-68
2022/07/04 05:28:31;;;;;;;35.63;21.40;;;31.60;99.90;;;;;;5094563;28;20086;-67
2022/07/04 05:30:58;;;;;;;34.83;22.67;;;31.60;99.90;;;;;;5094046;28;20024;-68
2022/07/04 05:33:25;;;;;;;39.10;25.20;;;31.70;99.90;;;;;;5078648;28;20082;-66
2022/07/04 05:35:51;;;;;;;43.33;32.85;;;31.80;99.90;;;;;;5089234;28;20031;-68
2022/07/04 05:38:18;;;;;;;43.90;33.22;;;31.90;99.90;;;;;;5084701;28;20476;-68
2022/07/04 05:40:45;;;;;;;36.22;30.63;;;31.80;99.90;;;;;;5085084;28;20431;-69
2022/07/04 05:43:11;;;;;;;30.25;25.00;;;31.80;99.90;;;;;;5090609;28;20017;-72
2022/07/04 05:45:38;;;;;;;35.80;27.85;;;31.80;99.90;;;;;;5081036;28;20446;-70
2022/07/04 05:48:05;;;;;;;32.60;23.67;;;31.80;99.90;;;;;;5077093;28;20128;-70
2022/07/04 05:50:32;;;;;;;44.85;30.65;;;31.70;99.90;;;;;;5080062;28;20024;-69
2022/07/04 05:52:59;;;;;;;34.40;24.15;;;31.80;99.90;;;;;;5081724;28;20428;-68
2022/07/04 05:55:26;;;;;;;28.95;21.70;;;31.80;99.90;;;;;;5083372;28;20081;-69
2022/07/04 05:57:53;;;;;;;30.35;20.17;;;31.90;99.90;;;;;;5083715;28;20423;-68
2022/07/04 06:00:20;;;;;;;25.50;19.50;;;31.90;99.90;;;;;;5082190;28;20020;-69
2022/07/04 06:02:46;;;;;;;26.20;19.33;;;31.80;99.90;;;;;;5083680;28;20013;-67
2022/07/04 06:05:13;;;;;;;30.52;19.58;;;31.80;99.90;;;;;;5081993;28;20013;-67
2022/07/04 06:07:40;;;;;;;26.00;17.83;;;31.80;99.90;;;;;;5087240;28;20024;-67
2022/07/04 06:10:07;;;;;;;17.63;13.00;;;31.80;99.60;;;;;;5082186;28;20047;-68
2022/07/04 06:12:34;;;;;;;18.10;12.05;;;31.90;99.50;;;;;;5081751;28;20028;-67
2022/07/04 06:15:01;;;;;;;17.42;9.35;;;32.10;99.80;;;;;;5083625;28;20023;-67
2022/07/04 06:17:28;;;;;;;15.70;9.38;;;32.10;99.30;;;;;;5083193;28;20052;-72
2022/07/04 06:19:54;;;;;;;61.42;52.33;;;32.20;99.20;;;;;;5086967;28;20023;-71
2022/07/04 06:22:21;;;;;;;42.45;31.52;;;32.10;98.50;;;;;;5084040;28;20099;-70
2022/07/04 06:24:48;;;;;;;30.10;20.70;;;32.00;99.30;;;;;;5074069;28;20058;-69
2022/07/04 06:27:14;;;;;;;30.95;16.42;;;32.00;99.10;;;;;;5093403;28;20032;-72
2022/07/04 06:29:41;;;;;;;25.73;18.90;;;31.90;98.80;;;;;;5092878;28;20027;-67
2022/07/04 06:32:08;;;;;;;23.88;14.45;;;31.90;99.20;;;;;;5091569;28;20016;-67
2022/07/04 06:37:21;;;;;;;23.25;15.13;;;31.90;99.30;;;;;;5090874;28;20048;-67
2022/07/04 06:39:48;;;;;;;46.55;23.95;;;32.00;99.20;;;;;;5081251;28;20016;-66
2022/07/04 06:42:15;;;;;;;43.10;23.00;;;32.00;99.00;;;;;;5079682;28;20021;-65
2022/07/04 06:44:41;;;;;;;52.25;39.33;;;32.00;99.20;;;;;;5081301;28;20033;-66
2022/07/04 06:47:08;;;;;;;15.20;11.57;;;32.10;99.40;;;;;;5080832;28;20047;-67
2022/07/04 06:49:35;;;;;;;15.93;11.68;;;32.10;98.50;;;;;;5081624;28;20036;-68
2022/07/04 06:52:01;;;;;;;23.20;17.15;;;32.00;99.00;;;;;;5082884;28;20104;-68
2022/07/04 06:54:28;;;;;;;20.17;14.82;;;32.10;99.10;;;;;;5085812;28;20373;-67
2022/07/04 06:56:55;;;;;;;70.72;48.30;;;32.00;98.40;;;;;;5078481;28;20047;-68
2022/07/04 06:59:21;;;;;;;32.70;23.60;;;32.10;98.40;;;;;;5061294;28;20027;-69
2022/07/04 07:01:48;;;;;;;37.20;30.02;;;32.10;98.60;;;;;;5093227;28;20067;-69
2022/07/04 07:04:15;;;;;;;35.75;27.38;;;32.10;97.40;;;;;;5093106;28;20020;-68
2022/07/04 07:06:41;;;;;;;28.33;19.60;;;32.00;97.30;;;;;;5093236;28;20075;-67
2022/07/04 07:09:08;;;;;;;24.60;17.20;;;32.00;97.20;;;;;;5092436;28;20032;-68
2022/07/04 07:11:35;;;;;;;29.75;19.25;;;32.00;97.40;;;;;;5092863;28;20048;-68
2022/07/04 07:14:01;;;;;;;24.52;17.00;;;32.20;96.70;;;;;;5075089;28;20028;-67
2022/07/04 07:16:28;;;;;;;19.17;11.85;;;32.40;96.40;;;;;;5093185;28;20020;-68
2022/07/04 07:18:55;;;;;;;17.67;10.43;;;32.30;95.80;;;;;;5093153;28;20022;-68
2022/07/04 07:21:21;;;;;;;17.67;12.75;;;32.30;95.20;;;;;;5093056;28;20020;-68
2022/07/04 07:23:49;;;;;;;21.20;14.85;;;32.20;96.00;;;;;;5092241;28;20020;-68
2022/07/04 07:26:16;;;;;;;17.55;12.63;;;32.30;95.80;;;;;;5092647;28;20485;-68
2022/07/04 07:28:42;;;;;;;16.65;11.60;;;32.50;96.20;;;;;;5092997;28;20028;-67
2022/07/04 07:31:09;;;;;;;22.30;14.52;;;32.70;95.80;;;;;;5092874;28;20476;-68
2022/07/04 07:33:36;;;;;;;22.88;14.70;;;32.80;95.50;;;;;;5093046;28;20052;-68
2022/07/04 07:36:03;;;;;;;21.08;14.32;;;32.80;95.70;;;;;;5092857;28;20536;-67
2022/07/04 07:38:30;;;;;;;18.55;13.02;;;32.90;95.30;;;;;;5092595;28;20016;-68
2022/07/04 07:40:57;;;;;;;14.88;11.80;;;33.00;95.00;;;;;;5092962;28;20017;-68
2022/07/04 07:43:26;;;;;;;17.10;12.18;;;32.90;94.40;;;;;;5092941;28;20047;-68
2022/07/04 07:45:53;;;;;;;33.70;26.65;;;32.90;94.30;;;;;;5092812;28;20021;-69
2022/07/04 07:48:20;;;;;;;56.92;45.70;;;32.90;94.90;;;;;;5092743;28;20066;-69
2022/07/04 07:50:46;;;;;;;30.05;20.38;;;32.90;94.80;;;;;;5092820;28;20013;-70
2022/07/04 07:53:13;;;;;;;19.17;9.95;;;32.80;94.10;;;;;;5092689;28;20047;-69
2022/07/04 07:55:40;;;;;;;16.23;11.52;;;32.70;93.00;;;;;;5095135;28;20024;-68
2022/07/04 07:58:07;;;;;;;14.30;8.27;;;32.70;93.50;;;;;;5078035;28;20024;-68
2022/07/04 08:00:33;;;;;;;19.08;10.77;;;32.60;92.90;;;;;;5096233;28;20086;-69
2022/07/04 08:05:47;;;;;;;19.08;7.82;;;32.60;93.50;;;;;;5096039;28;20115;-69
2022/07/04 08:08:13;;;;;;;10.70;6.07;;;32.70;93.70;;;;;;5096293;28;20017;-67
2022/07/04 08:10:40;;;;;;;20.70;8.13;;;32.60;93.30;;;;;;5095868;28;20385;-67
2022/07/04 08:13:07;;;;;;;15.15;6.85;;;32.60;93.70;;;;;;5087665;28;20051;-68
2022/07/04 08:15:34;;;;;;;24.02;18.90;;;32.70;93.70;;;;;;5084485;28;20025;-67
2022/07/04 08:18:01;;;;;;;10.10;7.28;;;32.70;93.50;;;;;;5085742;28;20058;-67
2022/07/04 08:20:28;;;;;;;13.98;7.70;;;32.80;93.30;;;;;;5084848;28;20012;-67
2022/07/04 08:22:55;;;;;;;11.50;7.75;;;32.70;93.30;;;;;;5085092;28;20103;-69
2022/07/04 08:25:22;;;;;;;13.10;8.15;;;32.60;93.00;;;;;;5093062;28;20047;-68
2022/07/04 08:27:48;;;;;;;11.85;8.23;;;32.60;93.00;;;;;;5083216;28;20384;-67
2022/07/04 08:30:15;;;;;;;43.00;33.00;;;32.60;92.80;;;;;;5084568;28;20031;-65
2022/07/04 08:32:42;;;;;;;24.02;18.95;;;32.50;92.20;;;;;;5085538;28;20123;-65
2022/07/04 08:35:09;;;;;;;13.20;7.95;;;32.40;92.10;;;;;;5084481;28;20059;-68
2022/07/04 08:37:35;;;;;;;10.10;7.45;;;32.50;91.50;;;;;;5085463;28;20063;-67
2022/07/04 08:40:06;;;;;;;14.75;8.70;;;32.50;91.60;;;;;;5085008;28;20028;-66
2022/07/04 08:42:37;;;;;;;14.20;9.13;;;32.50;92.10;;;;;;5084019;28;20024;-66
2022/07/04 08:45:06;;;;;;;12.95;8.77;;;32.40;92.40;;;;;;5085630;28;20044;-67
2022/07/04 08:47:35;;;;;;;15.00;8.73;;;32.40;92.10;;;;;;5092344;28;20059;-66
2022/07/04 08:50:03;;;;;;;16.67;8.32;;;32.50;91.80;;;;;;5095243;28;20027;-66
2022/07/04 08:52:41;;;;;;;17.10;9.43;;;32.70;91.10;;;;;;5094727;28;20024;-66
2022/07/04 09:00:35;;;;;;;19.05;9.07;;;33.10;89.10;;;;;;5093084;28;20099;-66
2022/07/04 09:03:03;;;;;;;10.38;6.90;;;33.20;90.10;;;;;;5092459;28;20098;-66
2022/07/04 09:05:32;;;;;;;12.10;7.32;;;33.30;89.20;;;;;;5092607;28;20024;-66
2022/07/04 09:07:58;;;;;;;16.05;8.32;;;33.20;90.00;;;;;;5093237;28;20032;-66
2022/07/04 09:10:25;;;;;;;11.88;7.32;;;33.20;90.00;;;;;;5092973;28;20111;-66
2022/07/04 09:12:53;;;;;;;12.93;7.18;;;33.10;90.00;;;;;;5092924;28;20048;-66
2022/07/04 09:15:20;;;;;;;12.63;6.78;;;33.10;90.10;;;;;;5091946;28;20036;-65
2022/07/04 09:17:48;;;;;;;10.70;7.30;;;33.10;90.00;;;;;;5094724;28;20038;-65
2022/07/04 09:20:20;;;;;;;9.52;6.50;;;33.10;90.10;;;;;;5087943;28;20028;-66
2022/07/04 09:22:49;;;;;;;9.82;6.15;;;33.10;88.70;;;;;;5086933;28;20485;-66
2022/07/04 09:25:17;;;;;;;16.60;8.63;;;33.10;89.40;;;;;;5085207;28;20020;-67
2022/07/04 09:27:47;;;;;;;18.45;10.18;;;33.10;90.30;;;;;;5082670;28;20024;-66
2022/07/04 09:30:16;;;;;;;14.43;8.30;;;33.10;88.70;;;;;;5082805;28;20380;-65
2022/07/04 09:32:47;;;;;;;12.63;6.85;;;33.10;90.00;;;;;;5082634;28;20020;-67
2022/07/04 09:35:24;;;;;;;13.50;8.20;;;33.00;90.40;;;;;;5083062;28;20050;-67
2022/07/04 09:38:00;;;;;;;22.83;7.88;;;33.10;90.60;;;;;;5089481;28;20035;-67
2022/07/04 09:40:32;;;;;;;16.38;8.35;;;33.00;90.90;;;;;;5092761;28;20380;-68
2022/07/04 09:43:01;;;;;;;13.90;6.45;;;33.00;90.30;;;;;;5090483;28;20020;-70
2022/07/04 09:45:28;;;;;;;18.35;9.48;;;32.90;90.70;;;;;;5094123;28;20114;-66
2022/07/04 09:47:57;;;;;;;24.75;12.00;;;32.90;91.00;;;;;;5094028;28;20048;-66
2022/07/04 09:50:27;;;;;;;19.35;11.20;;;32.80;91.10;;;;;;5094489;28;20153;-65
2022/07/04 09:52:56;;;;;;;11.25;7.32;;;32.80;91.10;;;;;;5093448;28;20031;-66
2022/07/04 09:55:25;;;;;;;16.17;9.45;;;32.70;91.00;;;;;;5089415;28;20272;-65
2022/07/04 09:57:53;;;;;;;19.90;11.20;;;32.70;91.10;;;;;;5085139;28;20397;-64
2022/07/04 10:00:23;;;;;;;17.92;10.48;;;32.70;91.30;;;;;;5095814;28;20067;-63
2022/07/04 10:02:51;;;;;;;19.05;9.73;;;32.60;91.80;;;;;;5097949;28;20043;-64
2022/07/04 10:05:22;;;;;;;93.25;54.15;;;32.60;92.00;;;;;;5095500;28;20055;-64
2022/07/04 10:07:49;;;;;;;150.77;81.78;;;32.60;91.80;;;;;;5091674;28;20472;-67
2022/07/04 10:10:39;;;;;;;29.73;16.27;;;32.60;91.40;;;;;;5091360;28;20070;-65
2022/07/04 10:13:11;;;;;;;19.23;12.88;;;32.50;91.00;;;;;;5089857;28;20031;-64
2022/07/04 10:15:41;;;;;;;20.77;12.50;;;32.60;91.50;;;;;;5093405;28;20043;-63
2022/07/04 10:18:09;;;;;;;29.25;15.80;;;32.50;92.00;;;;;;5090990;28;20032;-64
2022/07/04 10:20:37;;;;;;;33.78;16.95;;;32.50;91.50;;;;;;5092312;28;20045;-64
2022/07/04 10:23:04;;;;;;;26.48;12.90;;;32.50;91.80;;;;;;5092366;28;20028;-63
2022/07/04 10:25:30;;;;;;;28.33;11.30;;;32.50;91.90;;;;;;5093279;28;20093;-61
2022/07/04 10:27:57;;;;;;;27.73;14.68;;;32.50;91.70;;;;;;5092206;28;20100;-64
2022/07/04 10:30:29;;;;;;;25.48;15.43;;;32.40;91.20;;;;;;5091941;28;20035;-62
2022/07/04 10:33:00;;;;;;;45.70;18.75;;;32.40;91.50;;;;;;5074378;22;20056;-64
2022/07/04 10:35:48;;;;;;;61.17;32.20;;;32.40;91.50;;;;;;5024923;28;20422;-63
2022/07/04 10:38:16;;;;;;;75.20;48.10;;;32.30;91.50;;;;;;4918598;29;20532;-64
2022/07/04 10:40:56;;;;;;;108.25;67.18;;;32.20;92.00;;;;;;4928598;29;20043;-62
2022/07/04 10:43:34;;;;;;;98.03;59.40;;;32.20;92.00;;;;;;4920158;29;20032;-64
2022/07/04 10:46:23;;;;;;;112.47;60.88;;;32.20;91.90;;;;;;4918216;29;20044;-64
2022/07/04 10:48:59;;;;;;;99.53;56.35;;;32.10;91.20;;;;;;4919988;29;20111;-66
2022/07/04 10:51:38;;;;;;;59.42;36.13;;;32.10;91.20;;;;;;4919619;29;20024;-63
2022/07/04 10:54:09;;;;;;;68.15;35.88;;;32.00;91.10;;;;;;4914636;29;20111;-64
2022/07/04 10:56:39;;;;;;;55.88;34.13;;;32.00;91.60;;;;;;4909070;29;20044;-64
2022/07/04 10:59:27;;;;;;;54.97;29.70;;;32.00;91.70;;;;;;4921093;29;20035;-63
2022/07/04 11:02:16;;;;;;;48.92;28.25;;;32.00;92.10;;;;;;4996009;23;20079;-64
2022/07/04 11:04:45;;;;;;;42.30;25.23;;;31.90;92.60;;;;;;5058807;28;20062;-63
2022/07/04 11:07:12;;;;;;;47.72;26.17;;;31.90;92.90;;;;;;5066713;28;20282;-64
2022/07/04 11:09:39;;;;;;;52.42;28.92;;;31.80;93.10;;;;;;5060563;28;20029;-64
2022/07/04 11:12:06;;;;;;;59.92;32.40;;;31.80;93.30;;;;;;5069171;28;20020;-64
2022/07/04 11:14:40;;;;;;;63.20;34.28;;;31.90;93.50;;;;;;5072451;28;20092;-63
2022/07/04 11:17:11;;;;;;;58.10;28.38;;;31.80;93.70;;;;;;5068237;28;20033;-64
2022/07/04 11:19:39;;;;;;;52.35;27.98;;;31.80;93.70;;;;;;5070175;28;20060;-64
2022/07/04 11:22:08;;;;;;;45.40;26.90;;;31.80;93.60;;;;;;5053326;28;20025;-64
2022/07/04 11:24:35;;;;;;;52.25;29.38;;;31.80;93.30;;;;;;5067572;28;20031;-65
2022/07/04 11:27:02;;;;;;;64.15;35.42;;;31.80;93.30;;;;;;5072606;28;20477;-63
2022/07/04 11:29:30;;;;;;;68.57;37.75;;;31.70;93.60;;;;;;5074564;28;20042;-63
2022/07/04 14:08:36;;;;;;;38.88;19.02;;;29.40;99.90;;;;;;4776115;27;10304974;-63
2022/07/04 14:14:09;;;;;;;31.40;17.73;;;30.10;99.90;;;;;;5006720;28;20460;-63
2022/07/04 14:19:42;;;;;;;32.40;18.52;;;30.00;99.90;;;;;;4947366;29;20477;-63
2022/07/04 14:25:35;;;;;;;22.90;13.55;;;29.90;99.90;;;;;;4820912;29;20053;-63
2022/07/04 14:55:22;;;;;;;25.42;15.95;;;29.40;99.90;;;;;;4736656;30;20048;-63
2022/07/04 15:13:36;;;;;;;56.47;32.25;;;29.50;99.90;;;;;;4466758;27;19270029;-65
2022/07/04 15:16:23;;;;;;;63.13;37.63;;;29.50;99.90;;;;;;5047596;28;20441;-65
2022/07/04 15:25:23;;;;;;;61.30;34.63;;;29.60;99.90;;;;;;4821944;29;20035;-66
2022/07/04 15:28:30;;;;;;;53.25;32.83;;;29.60;99.90;;;;;;4782691;30;20043;-66
2022/07/04 15:41:08;;;;;;;57.83;34.15;;;29.60;99.90;;;;;;5070064;28;20713;-64
2022/07/04 15:53:34;;;;;;;59.17;35.22;;;29.20;99.90;;;;;;4760856;30;20068;-65
2022/07/04 16:02:07;;;;;;;69.57;35.95;;;29.40;99.90;;;;;;5068975;28;20115;-65
2022/07/04 16:04:34;;;;;;;82.45;38.92;;;29.40;99.90;;;;;;5068933;28;20526;-66
2022/07/04 16:10:27;;;;;;;93.13;41.88;;;29.20;99.90;;;;;;4950568;29;20567;-67
2022/07/04 16:13:14;;;;;;;100.30;43.88;;;29.20;99.90;;;;;;4893808;29;20058;-67
2022/07/04 16:15:41;;;;;;;101.10;46.70;;;29.20;99.90;;;;;;4838180;29;20135;-67
2022/07/04 16:30:41;;;;;;;70.47;38.88;;;29.10;99.90;;;;;;5071591;27;20445;-65
2022/07/04 16:39:40;;;;;;;76.03;42.20;;;28.90;99.90;;;;;;4988348;28;20463;-65
2022/07/04 16:42:07;;;;;;;78.43;43.42;;;29.00;99.90;;;;;;4912103;29;20136;-65
2022/07/04 16:47:40;;;;;;;68.95;42.08;;;29.00;99.90;;;;;;4818164;29;20067;-65
2022/07/04 16:50:27;;;;;;;80.78;44.33;;;29.10;99.90;;;;;;4811340;29;20513;-65
2022/07/04 16:59:22;;;;;;;93.60;53.97;;;29.00;99.90;;;;;;5194714;27;20393;-67
2022/07/04 17:01:48;;;;;;;80.88;52.05;;;29.00;99.90;;;;;;5087460;28;20040;-66
2022/07/04 17:04:35;;;;;;;84.57;50.95;;;29.00;99.90;;;;;;5088442;28;20028;-66
2022/07/04 17:10:28;;;;;;;75.60;46.70;;;28.90;99.90;;;;;;4950264;29;20039;-67
2022/07/04 17:13:15;;;;;;;73.32;46.88;;;28.90;99.90;;;;;;4950295;29;20613;-67
2022/07/04 17:16:01;;;;;;;79.82;47.47;;;28.80;99.90;;;;;;4912444;29;20044;-67
2022/07/04 17:18:49;;;;;;;78.28;47.03;;;28.80;99.90;;;;;;4874222;29;20582;-68
2022/07/04 17:21:39;;;;;;;71.80;43.30;;;28.70;99.90;;;;;;4819410;29;20045;-68
2022/07/04 17:24:07;;;;;;;50.28;33.33;;;28.70;99.90;;;;;;4765076;30;20036;-68
2022/07/04 17:26:36;;;;;;;50.40;29.17;;;28.80;99.90;;;;;;4765403;30;20036;-67
2022/07/04 17:35:15;;;;;;;26.63;15.43;;;28.70;99.90;;;;;;5091172;27;20786;-67
2022/07/04 17:38:21;;;;;;;23.00;11.68;;;28.70;99.90;;;;;;5077843;28;20029;-67